Bowler, Wisconsin
Current Conditions -  °F | °C
As of 10:15 AM on Friday 21 Nov 2014 (Local Time) from KCLI Reporting Station
Clear Clear  
Wind Chill: -14°   Ceiling: Unl
Heat Index: -8°   Visibility: 10mi
Dew Point: -15°   Wind: 9mph
Humidity: 58%   Direction: 210°SSW
Pressure: 30.34"   Gusts: NA
Location:  44.86°N, 88.98°W
Report Text: KCLI 211615Z AUTO 21008KT 10SM CLR M08/M15 A3034 RMK AO2
Loading
Personal Weather Stations






























Interactive Weather Map New forecast layout! Learn more

10-Day Weather Forecast

Advertisements
Track Severe Weather on mobile